Etusivu
METAR-TAF:

METAR-TAF

Lentoasemat :

Djerba, Tunisia

Leveyspiiri: 33-52N, Pituuspiiri: 010-46E, korkeus merenpinnasta: 3 m

Tämänhetkinen sää

Tämä raportti tehtiin 54 minuuttia sitten, kello 13.00 UTC
Tuuli 13 kn koillisesta, vaihdellen pohjoisen/koillisen ja idän välillä
Lämpötila 28°C
Kosteus 55%
Ilmanpaine 1013 hPa
Näkyvyys 10 km tai enemmän
ei pilviä alle 1500 m:ssä eikä cumulonimbus-pilviä

METAR: DTTJ 231300Z 05013KT 020V090 CAVOK 28/18 Q1013 NOSIG

Aika: 14:54 (13:54 UTC)

Sääennuste

Tämä raportti tehtiin 2 tuntia ja 54 minuuttia sitten, kello 11.00 UTC
Ennuste voimassa 23. päivästä klo 12 UTC - 24. päivään klo 12 UTC
Tuuli 10 kn koillisesta
Näkyvyys 10 km tai enemmän
ei pilviä alle 1500 m:ssä eikä cumulonimbus-pilviä
Tulossa
24. päivästä klo 10 UTC - 24. päivään klo 12 UTC
Tuuli 20 kn idästä/koillisesta

TAF: DTTJ 231100Z 2312/2412 04010KT CAVOK BECMG 2410/2412 06020KT

Säähavainnot ja -ennusteet yli 4000 lentoasemalta (METAR- ja TAF-raportit).

Käytössä olevat sääasemat on merkitty karttaan keltaisilla ja punaisilla pisteillä.

Aseta hiiri pisteen päälle nähdäksesi sääaseman nimen.

Klikkaa sitten nähdäksesi säähavainnot ja -ennusteet.

Kartan vaihtaminen: klikkaa mustalla rastilla varustettuja vihreitä pisteitä, niin voit zoomata sisään; viivalla varustettua vihreää pistettä, niin voit zoomata ulos tai vihreitä nuolia, niin pääset viereisille kartoille.


METAR-TAF: